Time;durP1;ratioP1;P1;durP2;ratioP2;P2;SDS_P1;SDS_P2;PMS_P1;PMS_P2;Temp;Humidity;BMP_temperature;BMP_pressure;BME280_temperature;BME280_humidity;BME280_pressure;Samples;Min_cycle;Max_cycle;Signal;HPM_P1;HPM_P2
2021/08/05 00:02:05;;;;;;;25.02;20.55;;;19.00;99.90;;;;;;5012322;28;20179;-78
2021/08/05 00:04:30;;;;;;;26.65;22.05;;;19.00;99.90;;;;;;5012157;28;20172;-78
2021/08/05 00:06:56;;;;;;;24.20;20.08;;;19.00;99.90;;;;;;5012237;28;20195;-79
2021/08/05 00:09:21;;;;;;;26.23;20.92;;;18.70;99.90;;;;;;5012534;28;20171;-78
2021/08/05 00:11:47;;;;;;;31.05;21.55;;;18.80;99.90;;;;;;4994519;28;20268;-78
2021/08/05 00:14:13;;;;;;;26.73;22.40;;;18.80;99.90;;;;;;5011948;28;20270;-78
2021/08/05 00:16:39;;;;;;;26.42;21.88;;;18.90;99.90;;;;;;4994743;28;20192;-78
2021/08/05 00:19:05;;;;;;;24.67;20.60;;;19.10;99.90;;;;;;5012397;28;20975;-78
2021/08/05 00:21:31;;;;;;;28.15;20.77;;;18.80;99.90;;;;;;5013328;28;20165;-78
2021/08/05 00:23:57;;;;;;;26.80;21.50;;;18.80;99.90;;;;;;5019234;28;20545;-79
2021/08/05 00:26:22;;;;;;;34.83;23.42;;;18.80;99.90;;;;;;5020975;28;20252;-79
2021/08/05 00:28:48;;;;;;;39.75;23.65;;;19.00;99.90;;;;;;5020639;28;20164;-79
2021/08/05 00:31:14;;;;;;;30.98;21.52;;;19.10;99.90;;;;;;5020423;28;20164;-78
2021/08/05 00:33:40;;;;;;;34.03;19.85;;;19.10;99.90;;;;;;5029420;28;20188;-78
2021/08/05 00:36:05;;;;;;;26.13;21.00;;;19.00;99.90;;;;;;5031366;28;20231;-78
2021/08/05 00:38:32;;;;;;;24.45;20.83;;;19.00;99.90;;;;;;5029519;28;20232;-78
2021/08/05 00:40:57;;;;;;;25.00;21.15;;;18.90;99.90;;;;;;5030584;28;20168;-79
2021/08/05 00:43:23;;;;;;;25.80;20.83;;;18.80;99.90;;;;;;5030135;28;20278;-78
2021/08/05 00:45:49;;;;;;;27.00;21.70;;;18.80;99.90;;;;;;5015652;28;20681;-78
2021/08/05 00:48:14;;;;;;;24.58;20.88;;;18.90;99.90;;;;;;5015689;28;20252;-79
2021/08/05 00:50:41;;;;;;;28.23;21.50;;;19.00;99.90;;;;;;5015124;28;20175;-78
2021/08/05 00:53:07;;;;;;;30.52;21.98;;;19.00;99.90;;;;;;5015709;28;20188;-78
2021/08/05 00:55:33;;;;;;;25.83;21.38;;;19.10;99.90;;;;;;5016276;28;20266;-78
2021/08/05 00:57:59;;;;;;;26.05;21.23;;;19.00;99.90;;;;;;5014454;28;20576;-79
2021/08/05 01:00:25;;;;;;;26.48;20.65;;;19.00;99.90;;;;;;5013855;28;20218;-78
2021/08/05 01:03:06;;;;;;;24.98;20.88;;;19.00;99.90;;;;;;5014275;28;20160;-78
2021/08/05 01:05:38;;;;;;;24.35;20.27;;;18.90;99.90;;;;;;5013888;28;20197;-78
2021/08/05 01:08:15;;;;;;;23.17;20.15;;;19.00;99.90;;;;;;5013649;28;20168;-78
2021/08/05 01:11:02;;;;;;;25.13;20.95;;;19.00;99.90;;;;;;5014600;28;20157;-79
2021/08/05 01:13:36;;;;;;;25.45;20.92;;;19.10;99.90;;;;;;4997628;28;20682;-79
2021/08/05 01:16:09;;;;;;;25.02;20.02;;;19.10;99.90;;;;;;5015601;28;20199;-78
2021/08/05 01:18:37;;;;;;;25.30;19.85;;;19.00;99.90;;;;;;4997819;28;20595;-79
2021/08/05 01:21:08;;;;;;;27.73;20.48;;;18.70;99.90;;;;;;5015812;28;20192;-78
2021/08/05 01:23:52;;;;;;;26.00;20.27;;;18.50;99.90;;;;;;5015810;28;20176;-78
2021/08/05 01:26:29;;;;;;;21.65;18.98;;;18.60;99.90;;;;;;5015077;28;20192;-78
2021/08/05 01:28:55;;;;;;;27.85;21.17;;;18.50;99.90;;;;;;5015168;28;20645;-78
2021/08/05 01:31:24;;;;;;;24.23;19.73;;;18.60;99.90;;;;;;5015506;28;20181;-79
2021/08/05 01:33:51;;;;;;;24.80;21.35;;;18.50;99.90;;;;;;5015280;28;20197;-79
2021/08/05 01:36:18;;;;;;;30.55;21.63;;;18.40;99.90;;;;;;5015058;28;20189;-78
2021/08/05 01:38:46;;;;;;;28.92;21.98;;;18.60;99.90;;;;;;5015256;28;20195;-78
2021/08/05 01:41:12;;;;;;;28.90;22.05;;;18.80;99.90;;;;;;5014717;28;20656;-78
2021/08/05 01:43:38;;;;;;;29.33;22.15;;;18.90;99.90;;;;;;5014897;28;20165;-78
2021/08/05 01:46:04;;;;;;;28.67;22.40;;;18.80;99.90;;;;;;5015026;28;20180;-78
2021/08/05 01:48:32;;;;;;;31.05;23.00;;;18.80;99.90;;;;;;5014756;28;20633;-79
2021/08/05 01:50:59;;;;;;;37.20;22.38;;;18.80;99.90;;;;;;5015224;28;20167;-79
2021/08/05 01:53:26;;;;;;;30.70;21.92;;;18.60;99.90;;;;;;4997286;28;20181;-78
2021/08/05 01:55:52;;;;;;;28.58;22.40;;;18.50;99.90;;;;;;5014550;28;20204;-79
2021/08/05 01:58:18;;;;;;;27.25;22.77;;;18.40;99.90;;;;;;5014681;28;20238;-78
2021/08/05 02:00:44;;;;;;;32.50;23.92;;;18.40;99.90;;;;;;5014885;28;20181;-79
2021/08/05 02:03:11;;;;;;;33.67;22.95;;;18.40;99.90;;;;;;5014520;28;20258;-79
2021/08/05 02:06:18;;;;;;;28.40;22.50;;;18.50;99.90;;;;;;5014643;28;20188;-78
2021/08/05 02:08:49;;;;;;;26.80;21.50;;;18.40;99.90;;;;;;4953636;29;20182;-78
2021/08/05 02:11:16;;;;;;;25.00;21.23;;;18.40;99.90;;;;;;4953558;29;20178;-78
2021/08/05 02:13:42;;;;;;;28.63;22.63;;;18.40;99.90;;;;;;4983713;28;20208;-80
2021/08/05 02:16:17;;;;;;;30.02;23.17;;;18.30;99.90;;;;;;5014330;28;20188;-78
2021/08/05 02:18:45;;;;;;;30.67;22.65;;;18.40;99.90;;;;;;5014031;28;20168;-78
2021/08/05 02:21:13;;;;;;;31.15;23.35;;;18.50;99.90;;;;;;5014104;28;20165;-78
2021/08/05 02:23:40;;;;;;;29.90;22.48;;;18.50;99.90;;;;;;5014235;28;20180;-78
2021/08/05 02:26:07;;;;;;;30.75;23.58;;;18.50;99.90;;;;;;5014201;28;20199;-79
2021/08/05 02:28:33;;;;;;;36.58;24.05;;;18.60;99.90;;;;;;5013814;28;20176;-78
2021/08/05 02:30:59;;;;;;;45.90;23.60;;;18.70;99.90;;;;;;5014488;28;20176;-79
2021/08/05 02:33:27;;;;;;;34.28;24.10;;;18.80;99.90;;;;;;5014134;28;20260;-78
2021/08/05 02:35:54;;;;;;;27.75;22.45;;;18.80;99.90;;;;;;5013933;28;20208;-78
2021/08/05 02:38:20;;;;;;;26.50;21.60;;;18.70;99.90;;;;;;4995762;28;20637;-79
2021/08/05 02:40:48;;;;;;;38.28;24.67;;;18.80;99.90;;;;;;4995914;28;20625;-78
2021/08/05 02:43:15;;;;;;;33.60;24.85;;;18.60;99.90;;;;;;5013738;28;20168;-79
2021/08/05 02:45:42;;;;;;;31.85;24.00;;;18.50;99.90;;;;;;5012887;28;20195;-78
2021/08/05 02:48:10;;;;;;;34.70;24.88;;;18.50;99.90;;;;;;5013214;28;20199;-78
2021/08/05 02:50:36;;;;;;;32.40;24.70;;;18.60;99.90;;;;;;5013416;28;20164;-79
2021/08/05 02:53:03;;;;;;;32.20;24.55;;;18.30;99.90;;;;;;5013482;28;20168;-78
2021/08/05 02:55:30;;;;;;;34.95;24.58;;;18.30;99.90;;;;;;5013452;28;20255;-79
2021/08/05 02:57:56;;;;;;;33.63;24.40;;;18.40;99.90;;;;;;4995501;28;20625;-79
2021/08/05 03:00:22;;;;;;;30.35;23.65;;;18.60;99.90;;;;;;5013344;28;20191;-79
2021/08/05 03:02:48;;;;;;;34.75;24.92;;;18.60;99.90;;;;;;4995182;28;20303;-78
2021/08/05 03:05:16;;;;;;;37.30;27.00;;;18.40;99.90;;;;;;5013040;28;20176;-78
2021/08/05 03:07:42;;;;;;;34.90;25.00;;;18.50;99.90;;;;;;5013131;28;20180;-78
2021/08/05 03:10:10;;;;;;;32.03;23.77;;;18.60;99.90;;;;;;5013063;28;20172;-78
2021/08/05 03:12:35;;;;;;;32.97;24.33;;;18.70;99.90;;;;;;5013062;28;20310;-78
2021/08/05 03:15:01;;;;;;;39.00;24.58;;;18.70;99.90;;;;;;4995651;28;20295;-78
2021/08/05 03:17:27;;;;;;;34.78;24.60;;;18.70;99.90;;;;;;4995172;28;20196;-78
2021/08/05 03:19:53;;;;;;;28.92;23.50;;;18.70;99.90;;;;;;5013127;28;20389;-78
2021/08/05 03:22:18;;;;;;;31.60;25.02;;;18.70;99.90;;;;;;5013049;28;20176;-78
2021/08/05 03:24:44;;;;;;;34.10;25.52;;;18.70;99.90;;;;;;4995846;28;20195;-79
2021/08/05 03:27:11;;;;;;;32.28;24.10;;;18.70;99.90;;;;;;5012651;28;20664;-78
2021/08/05 03:29:37;;;;;;;33.53;24.98;;;18.60;99.90;;;;;;5012839;28;20256;-78
2021/08/05 03:32:04;;;;;;;31.45;24.02;;;18.40;99.90;;;;;;5012838;28;20222;-78
2021/08/05 03:34:29;;;;;;;36.10;22.25;;;18.60;99.90;;;;;;5012608;28;20684;-78
2021/08/05 03:36:55;;;;;;;32.28;24.05;;;18.60;99.90;;;;;;5012638;28;20184;-78
2021/08/05 03:39:21;;;;;;;30.88;23.00;;;18.40;99.90;;;;;;5012709;28;20226;-78
2021/08/05 03:41:47;;;;;;;37.55;26.02;;;18.30;99.90;;;;;;5012483;28;20172;-79
2021/08/05 03:44:13;;;;;;;41.15;26.58;;;18.30;99.90;;;;;;5012567;28;20182;-78
2021/08/05 03:46:38;;;;;;;35.35;25.58;;;18.30;99.90;;;;;;5012359;28;20189;-78
2021/08/05 03:49:04;;;;;;;33.72;24.92;;;18.40;99.90;;;;;;5012546;28;20291;-78
2021/08/05 03:51:30;;;;;;;35.90;25.67;;;18.40;99.90;;;;;;5012830;28;20176;-78
2021/08/05 03:53:57;;;;;;;36.78;26.23;;;18.40;99.90;;;;;;5012400;28;20192;-78
2021/08/05 03:56:22;;;;;;;33.55;25.23;;;18.60;99.90;;;;;;5012174;28;20192;-78
2021/08/05 03:58:48;;;;;;;36.35;25.80;;;18.70;99.90;;;;;;5016434;28;20172;-78
2021/08/05 04:01:14;;;;;;;38.92;26.77;;;18.70;99.90;;;;;;4998540;28;20191;-79
2021/08/05 04:03:39;;;;;;;35.58;26.20;;;18.60;99.90;;;;;;5016059;28;20167;-78
2021/08/05 04:06:05;;;;;;;42.83;27.08;;;18.60;99.90;;;;;;5016284;28;20275;-77
2021/08/05 04:08:31;;;;;;;42.45;27.65;;;18.40;99.90;;;;;;5016258;28;20183;-78
2021/08/05 04:10:56;;;;;;;42.72;27.60;;;18.30;99.90;;;;;;5016571;28;20645;-78
2021/08/05 04:13:22;;;;;;;37.47;27.25;;;18.30;99.90;;;;;;5016335;28;20247;-78
2021/08/05 04:15:48;;;;;;;42.20;28.60;;;18.40;99.90;;;;;;5016007;28;20216;-78
2021/08/05 04:18:13;;;;;;;48.75;29.02;;;18.50;99.90;;;;;;5016125;28;20581;-78
2021/08/05 04:20:39;;;;;;;43.28;28.73;;;18.60;99.90;;;;;;5016093;28;20215;-78
2021/08/05 04:23:05;;;;;;;42.03;27.83;;;18.60;99.90;;;;;;5016210;28;20195;-78
2021/08/05 04:25:30;;;;;;;43.58;28.92;;;18.40;99.90;;;;;;5015398;28;20226;-78
2021/08/05 04:27:56;;;;;;;42.78;27.95;;;18.30;99.90;;;;;;4997904;28;20279;-78
2021/08/05 04:30:21;;;;;;;39.15;27.70;;;18.30;99.90;;;;;;5015854;28;20165;-78
2021/08/05 04:32:47;;;;;;;40.28;29.30;;;18.40;99.90;;;;;;5015920;28;20172;-78
2021/08/05 04:35:13;;;;;;;38.63;27.85;;;18.40;99.90;;;;;;5015465;28;20597;-78
2021/08/05 04:38:10;;;;;;;43.22;26.20;;;18.50;99.90;;;;;;5015390;28;20690;-78
2021/08/05 04:40:36;;;;;;;43.22;28.08;;;18.40;99.90;;;;;;5003584;28;20181;-78
2021/08/05 04:43:02;;;;;;;42.97;28.48;;;18.50;99.90;;;;;;5015412;28;20174;-78
2021/08/05 04:45:27;;;;;;;40.65;28.30;;;18.50;99.90;;;;;;5015451;28;20220;-78
2021/08/05 04:48:00;;;;;;;42.03;27.50;;;18.60;99.90;;;;;;5015687;28;20251;-78
2021/08/05 04:50:28;;;;;;;40.55;29.00;;;18.60;99.90;;;;;;5015459;28;20192;-78
2021/08/05 04:52:54;;;;;;;38.95;28.02;;;18.40;99.90;;;;;;4997812;28;20173;-79
2021/08/05 04:55:20;;;;;;;41.25;27.85;;;18.50;99.90;;;;;;5015298;28;20620;-78
2021/08/05 04:57:46;;;;;;;47.70;28.88;;;18.50;99.90;;;;;;5015340;28;20165;-78
2021/08/05 05:00:13;;;;;;;39.97;27.88;;;18.50;99.90;;;;;;5015325;28;20204;-78
2021/08/05 05:02:38;;;;;;;42.05;28.00;;;18.60;99.90;;;;;;5015054;28;20156;-79
2021/08/05 05:05:04;;;;;;;39.08;27.35;;;18.60;99.90;;;;;;5015364;28;20514;-78
2021/08/05 05:07:30;;;;;;;41.17;25.85;;;18.40;99.90;;;;;;5015188;28;20279;-79
2021/08/05 05:09:55;;;;;;;42.83;27.67;;;18.40;99.90;;;;;;5014459;28;20176;-78
2021/08/05 05:12:21;;;;;;;40.20;27.17;;;18.60;99.90;;;;;;5014846;28;20180;-78
2021/08/05 05:14:46;;;;;;;39.30;27.42;;;18.70;99.90;;;;;;5015117;28;20200;-79
2021/08/05 05:17:12;;;;;;;40.35;27.13;;;18.80;99.90;;;;;;5014957;28;20184;-78
2021/08/05 05:19:37;;;;;;;37.55;25.80;;;18.60;99.90;;;;;;5014831;28;20192;-78
2021/08/05 05:22:03;;;;;;;38.42;25.85;;;18.50;99.90;;;;;;5014787;28;20164;-79
2021/08/05 05:24:29;;;;;;;38.63;27.27;;;18.30;99.90;;;;;;5014434;28;20274;-78
2021/08/05 05:26:54;;;;;;;44.47;26.50;;;18.30;99.90;;;;;;5014619;28;20180;-79
2021/08/05 05:29:20;;;;;;;45.55;27.90;;;18.30;99.90;;;;;;5014655;28;20184;-79
2021/08/05 05:31:46;;;;;;;41.33;27.88;;;18.30;99.90;;;;;;5014448;28;20629;-79
2021/08/05 05:34:11;;;;;;;39.03;25.95;;;18.40;99.90;;;;;;5014440;28;20684;-80
2021/08/05 05:36:37;;;;;;;39.17;27.88;;;18.40;99.90;;;;;;5014552;28;20279;-80
2021/08/05 05:39:03;;;;;;;40.72;26.42;;;18.70;99.90;;;;;;5014294;28;20260;-80
2021/08/05 05:41:28;;;;;;;39.42;25.77;;;18.90;99.90;;;;;;5014396;28;20176;-80
2021/08/05 05:43:54;;;;;;;37.22;24.15;;;19.10;99.90;;;;;;5014234;28;20172;-80
2021/08/05 05:46:20;;;;;;;39.53;26.42;;;19.30;99.90;;;;;;5014298;28;20185;-80
2021/08/05 05:48:45;;;;;;;39.22;26.55;;;19.50;99.90;;;;;;5013504;28;20179;-80
2021/08/05 05:51:11;;;;;;;39.50;26.17;;;19.70;99.90;;;;;;5014079;28;20203;-79
2021/08/05 05:53:37;;;;;;;42.70;25.77;;;19.90;99.90;;;;;;5014035;28;21043;-79
2021/08/05 05:56:03;;;;;;;43.97;28.20;;;19.80;99.90;;;;;;5014254;28;20192;-78
2021/08/05 05:58:29;;;;;;;42.67;28.52;;;20.00;99.90;;;;;;5013719;28;20172;-79
2021/08/05 06:00:56;;;;;;;41.45;29.88;;;20.00;99.90;;;;;;5013857;28;20164;-82
2021/08/05 06:03:22;;;;;;;49.78;33.10;;;20.10;99.90;;;;;;5014025;28;20168;-80
2021/08/05 06:05:47;;;;;;;45.55;32.60;;;20.10;99.90;;;;;;5013677;28;20237;-81
2021/08/05 06:08:13;;;;;;;54.00;31.58;;;20.10;99.90;;;;;;5013785;28;20230;-81
2021/08/05 06:10:40;;;;;;;44.15;30.02;;;20.20;99.90;;;;;;5013358;28;20176;-78
2021/08/05 06:13:05;;;;;;;42.95;29.40;;;20.50;99.90;;;;;;5013182;28;20173;-79
2021/08/05 06:15:31;;;;;;;44.97;31.95;;;20.80;99.90;;;;;;5013418;28;20235;-78
2021/08/05 06:17:57;;;;;;;50.83;30.92;;;21.00;99.90;;;;;;5013647;28;20617;-78
2021/08/05 06:20:22;;;;;;;42.17;28.50;;;21.30;99.90;;;;;;5012770;28;20250;-79
2021/08/05 06:22:49;;;;;;;45.20;30.00;;;21.40;99.90;;;;;;5013300;28;20171;-79
2021/08/05 06:25:16;;;;;;;47.92;28.05;;;21.70;99.90;;;;;;5012257;28;20608;-79
2021/08/05 06:27:42;;;;;;;31.08;26.45;;;21.80;99.90;;;;;;5013706;28;20188;-81
2021/08/05 06:30:08;;;;;;;42.88;26.92;;;22.00;99.90;;;;;;5013938;28;20184;-80
2021/08/05 06:32:34;;;;;;;39.08;27.67;;;22.10;99.90;;;;;;5012901;28;20638;-83
2021/08/05 06:35:00;;;;;;;33.85;26.23;;;21.70;99.90;;;;;;4995954;28;20290;-82
2021/08/05 06:37:27;;;;;;;38.78;28.23;;;21.70;99.90;;;;;;5013599;28;20211;-81
2021/08/05 06:39:53;;;;;;;37.05;28.25;;;21.70;99.90;;;;;;5013680;28;20223;-80
2021/08/05 06:42:19;;;;;;;37.20;28.10;;;22.00;99.90;;;;;;4996318;28;20177;-81
2021/08/05 06:44:44;;;;;;;32.47;27.13;;;22.10;99.90;;;;;;5014197;28;20564;-81
2021/08/05 06:47:10;;;;;;;34.33;27.83;;;22.00;99.90;;;;;;5013490;28;20684;-84
2021/08/05 06:49:36;;;;;;;35.70;27.90;;;22.20;99.90;;;;;;5013448;28;20169;-82
2021/08/05 06:52:02;;;;;;;40.55;28.42;;;22.50;99.90;;;;;;5013273;28;20295;-90
2021/08/05 06:54:32;;;;;;;32.95;27.10;;;22.70;99.90;;;;;;5012740;28;20223;-81
2021/08/05 06:56:58;;;;;;;35.35;27.98;;;22.70;99.90;;;;;;4996971;28;20205;-81
2021/08/05 06:59:23;;;;;;;35.50;27.88;;;22.60;99.90;;;;;;5009432;28;20175;-81
2021/08/05 07:01:49;;;;;;;43.67;29.38;;;22.40;99.90;;;;;;5012037;28;20652;-81
2021/08/05 07:04:15;;;;;;;36.45;26.25;;;22.50;99.90;;;;;;5013516;28;20618;-81
2021/08/05 07:06:40;;;;;;;38.15;27.55;;;22.10;99.90;;;;;;5011436;28;20200;-81
2021/08/05 07:09:06;;;;;;;40.03;28.13;;;22.00;99.90;;;;;;5012093;28;20165;-80
2021/08/05 07:11:32;;;;;;;37.65;26.98;;;22.20;99.90;;;;;;5011110;28;20644;-81
2021/08/05 07:13:57;;;;;;;37.88;26.27;;;22.50;99.90;;;;;;5011396;28;20176;-81
2021/08/05 07:16:23;;;;;;;37.00;26.98;;;22.70;99.90;;;;;;4994764;28;20687;-81
2021/08/05 07:18:49;;;;;;;31.67;25.80;;;23.00;99.90;;;;;;5011318;28;20252;-80
2021/08/05 07:21:14;;;;;;;28.55;25.33;;;23.40;99.90;;;;;;5011077;28;20172;-80
2021/08/05 07:23:40;;;;;;;35.17;24.92;;;23.50;99.90;;;;;;5011480;28;20235;-82
2021/08/05 07:26:05;;;;;;;32.30;26.60;;;23.40;99.90;;;;;;4997416;28;20252;-80
2021/08/05 07:28:32;;;;;;;32.10;25.70;;;23.20;99.90;;;;;;4991866;28;20188;-81
2021/08/05 07:30:58;;;;;;;36.03;27.60;;;23.00;99.90;;;;;;4991398;28;20193;-81
2021/08/05 07:33:24;;;;;;;44.95;27.42;;;23.20;99.90;;;;;;4991497;28;20204;-81
2021/08/05 07:35:50;;;;;;;33.22;25.15;;;23.60;99.90;;;;;;4992963;28;20233;-82
2021/08/05 07:38:15;;;;;;;30.60;25.02;;;24.40;99.90;;;;;;4992627;28;20244;-82
2021/08/05 07:40:41;;;;;;;32.45;21.38;;;24.90;99.90;;;;;;4993037;28;20177;-81
2021/08/05 07:43:07;;;;;;;28.63;22.40;;;25.30;99.90;;;;;;4975653;28;20177;-82
2021/08/05 07:45:33;;;;;;;30.98;23.52;;;25.40;99.90;;;;;;4975203;28;20188;-82
2021/08/05 07:47:59;;;;;;;30.17;23.77;;;25.10;99.90;;;;;;4975182;28;20169;-83
2021/08/05 07:50:25;;;;;;;29.23;25.83;;;24.80;99.90;;;;;;4974942;28;20177;-80
2021/08/05 07:52:51;;;;;;;31.05;26.15;;;24.70;99.90;;;;;;4975158;28;20173;-81
2021/08/05 07:55:17;;;;;;;31.15;24.73;;;24.80;99.90;;;;;;5003497;28;20208;-84
2021/08/05 07:57:42;;;;;;;37.08;25.08;;;24.20;99.90;;;;;;5012068;28;20172;-81
2021/08/05 08:00:09;;;;;;;45.67;25.92;;;24.30;99.90;;;;;;5012240;28;20253;-83
2021/08/05 08:02:34;;;;;;;31.77;26.42;;;24.20;99.90;;;;;;4995512;28;20176;-82
2021/08/05 08:05:00;;;;;;;30.50;25.20;;;24.00;99.90;;;;;;5012468;28;20797;-80
2021/08/05 08:07:26;;;;;;;30.58;24.85;;;23.70;99.90;;;;;;5011363;28;20196;-79
2021/08/05 08:09:51;;;;;;;34.00;26.35;;;23.70;99.90;;;;;;5012345;28;20714;-80
2021/08/05 08:12:18;;;;;;;35.53;25.80;;;23.30;99.90;;;;;;5012384;28;20177;-80
2021/08/05 08:14:43;;;;;;;29.10;24.58;;;23.20;99.90;;;;;;4995358;28;20546;-81
2021/08/05 08:17:10;;;;;;;30.17;23.70;;;23.20;99.90;;;;;;5012473;28;20239;-80
2021/08/05 08:19:35;;;;;;;27.50;23.20;;;23.30;99.90;;;;;;5012668;28;20173;-87
2021/08/05 08:22:01;;;;;;;26.95;22.33;;;23.10;99.90;;;;;;5012952;28;20176;-81
2021/08/05 08:24:29;;;;;;;26.92;20.00;;;23.20;99.90;;;;;;4996139;28;20434;-83
2021/08/05 08:26:55;;;;;;;29.58;19.27;;;23.20;99.90;;;;;;4995233;28;20192;-81
2021/08/05 08:29:20;;;;;;;19.63;16.42;;;23.50;99.90;;;;;;5012348;28;20257;-78
2021/08/05 08:31:48;;;;;;;18.67;16.75;;;23.70;99.90;;;;;;5013286;28;20202;-81
2021/08/05 08:34:14;;;;;;;20.60;16.90;;;23.40;99.90;;;;;;5012812;28;20262;-82
2021/08/05 08:36:42;;;;;;;16.02;13.93;;;23.30;99.90;;;;;;5013054;28;20185;-82
2021/08/05 08:39:08;;;;;;;14.90;12.73;;;23.20;99.90;;;;;;5013439;28;20168;-81
2021/08/05 08:41:34;;;;;;;18.92;12.75;;;23.20;99.90;;;;;;4995302;28;20267;-81
2021/08/05 08:43:59;;;;;;;20.60;14.63;;;23.00;99.90;;;;;;4995106;28;20168;-81
2021/08/05 08:46:25;;;;;;;16.85;13.77;;;22.90;99.90;;;;;;5009167;28;20597;-81
2021/08/05 08:48:52;;;;;;;15.85;12.18;;;22.70;99.90;;;;;;5028719;28;20223;-81
2021/08/05 08:51:19;;;;;;;14.98;13.27;;;22.80;99.90;;;;;;5028600;28;20173;-81
2021/08/05 08:53:50;;;;;;;16.88;14.63;;;22.80;99.90;;;;;;5027965;28;20192;-81
2021/08/05 08:56:16;;;;;;;14.93;13.38;;;22.90;99.90;;;;;;5029086;28;20188;-85
2021/08/05 08:58:42;;;;;;;20.00;11.95;;;22.90;99.90;;;;;;5008606;28;20175;-85
2021/08/05 09:01:09;;;;;;;11.63;10.48;;;22.90;99.90;;;;;;5028505;28;20168;-81
2021/08/05 09:03:35;;;;;;;17.90;11.95;;;23.00;99.90;;;;;;5010449;28;20280;-83
2021/08/05 09:06:01;;;;;;;14.98;11.50;;;23.10;99.90;;;;;;5027670;28;20181;-87
2021/08/05 09:08:27;;;;;;;20.35;12.00;;;23.20;99.90;;;;;;5018449;28;20657;-84
2021/08/05 09:10:57;;;;;;;12.85;9.65;;;23.30;99.90;;;;;;5016414;28;20169;-82
2021/08/05 09:13:23;;;;;;;10.07;8.43;;;23.30;99.90;;;;;;4998454;28;20211;-85
2021/08/05 09:15:49;;;;;;;8.70;6.55;;;23.40;99.90;;;;;;5015308;28;20255;-82
2021/08/05 09:18:38;;;;;;;9.95;8.15;;;23.30;99.90;;;;;;4997961;28;20625;-80
2021/08/05 09:21:05;;;;;;;6.18;5.68;;;23.20;99.90;;;;;;4997876;28;20192;-81
2021/08/05 09:23:51;;;;;;;8.25;6.85;;;23.40;99.90;;;;;;5015960;28;20199;-81
2021/08/05 09:26:45;;;;;;;11.15;7.22;;;23.70;99.90;;;;;;5015238;28;20196;-82
2021/08/05 09:29:15;;;;;;;6.35;5.13;;;23.90;99.90;;;;;;5014799;28;20160;-82
2021/08/05 09:31:50;;;;;;;4.85;4.32;;;24.40;99.90;;;;;;5015022;28;20168;-87
2021/08/05 09:34:31;;;;;;;4.07;3.70;;;24.70;99.90;;;;;;5014981;28;20203;-82
2021/08/05 09:37:03;;;;;;;4.38;3.97;;;25.00;99.90;;;;;;4997271;28;20223;-82
2021/08/05 09:39:30;;;;;;;3.65;3.35;;;25.10;99.90;;;;;;5014917;28;20168;-85
2021/08/05 09:42:07;;;;;;;3.10;2.85;;;24.90;99.90;;;;;;5014670;28;20172;-83
2021/08/05 09:44:39;;;;;;;5.20;3.30;;;24.90;99.90;;;;;;4996783;28;20168;-84
2021/08/05 09:47:17;;;;;;;3.80;2.88;;;24.90;99.90;;;;;;4994924;28;20584;-84
2021/08/05 09:49:51;;;;;;;9.02;4.05;;;24.90;99.90;;;;;;5014046;28;20195;-84
2021/08/05 09:52:33;;;;;;;4.97;4.28;;;25.20;99.90;;;;;;4996776;28;20180;-84
2021/08/05 09:55:01;;;;;;;6.07;4.75;;;25.70;99.90;;;;;;4996511;28;20239;-84
2021/08/05 09:57:34;;;;;;;5.47;4.90;;;25.50;99.90;;;;;;4996590;28;20184;-82
2021/08/05 10:00:14;;;;;;;4.75;4.35;;;25.40;99.90;;;;;;5014500;28;20169;-83
2021/08/05 10:02:41;;;;;;;4.40;4.00;;;25.40;99.90;;;;;;4996495;28;20219;-82
2021/08/05 10:05:21;;;;;;;10.93;4.60;;;25.40;99.90;;;;;;5014178;28;20211;-82
2021/08/05 10:07:48;;;;;;;9.65;4.47;;;25.50;99.90;;;;;;5013828;28;20251;-84
2021/08/05 10:10:18;;;;;;;8.20;5.10;;;25.70;99.90;;;;;;4996357;28;20226;-84
2021/08/05 10:12:56;;;;;;;5.55;5.05;;;25.70;99.90;;;;;;4996505;28;20168;-83
2021/08/05 10:15:22;;;;;;;5.93;4.93;;;25.70;99.90;;;;;;4996065;28;20249;-83
2021/08/05 10:17:56;;;;;;;6.88;4.50;;;25.60;99.90;;;;;;4996314;28;20179;-83
2021/08/05 10:20:25;;;;;;;4.90;4.25;;;25.60;99.90;;;;;;5013890;28;20275;-83
2021/08/05 10:22:52;;;;;;;4.88;3.90;;;25.60;99.90;;;;;;4997345;28;20248;-83
2021/08/05 10:25:21;;;;;;;5.63;2.45;;;25.70;99.90;;;;;;4997092;28;20206;-83
2021/08/05 10:27:48;;;;;;;6.18;3.65;;;25.60;99.90;;;;;;4997141;28;20172;-82
2021/08/05 10:30:16;;;;;;;8.80;2.70;;;25.50;99.90;;;;;;4997269;28;20188;-84
2021/08/05 10:32:44;;;;;;;2.42;2.13;;;25.20;99.90;;;;;;5014433;28;20604;-82
2021/08/05 10:35:11;;;;;;;8.32;2.97;;;25.60;99.90;;;;;;4997138;28;20243;-84
2021/08/05 10:37:38;;;;;;;2.75;2.53;;;25.80;99.90;;;;;;4997368;28;20169;-85
2021/08/05 10:40:05;;;;;;;5.88;2.58;;;26.00;99.90;;;;;;5014926;28;20637;-83
2021/08/05 10:42:31;;;;;;;6.03;2.47;;;26.10;99.90;;;;;;5014098;28;20165;-85
2021/08/05 10:44:57;;;;;;;2.20;2.10;;;26.30;99.90;;;;;;4996606;28;20629;-85
2021/08/05 10:47:25;;;;;;;2.25;2.00;;;26.80;99.90;;;;;;4995534;28;20184;-84
2021/08/05 10:49:57;;;;;;;6.50;2.53;;;27.10;99.90;;;;;;4995731;28;20219;-85
2021/08/05 10:52:35;;;;;;;2.63;1.98;;;26.80;99.90;;;;;;4995350;28;20191;-84
2021/08/05 10:55:02;;;;;;;3.17;2.20;;;26.70;99.90;;;;;;4995438;28;20207;-85
2021/08/05 10:57:28;;;;;;;3.88;2.92;;;26.40;99.90;;;;;;4995794;28;20276;-85
2021/08/05 11:00:03;;;;;;;3.17;2.42;;;26.60;99.90;;;;;;4995787;28;20204;-82
2021/08/05 11:02:54;;;;;;;7.55;2.25;;;26.80;99.90;;;;;;5013114;28;20176;-83
2021/08/05 11:05:26;;;;;;;3.67;1.92;;;26.50;99.90;;;;;;4993782;28;20656;-84
2021/08/05 11:08:15;;;;;;;6.93;2.25;;;26.20;99.90;;;;;;5011699;28;20568;-84
2021/08/05 11:10:41;;;;;;;3.63;2.60;;;26.40;99.90;;;;;;4995958;28;20184;-84
2021/08/05 11:13:07;;;;;;;3.83;2.83;;;26.60;99.90;;;;;;5012709;28;20183;-83
2021/08/05 11:15:35;;;;;;;5.63;2.47;;;26.50;99.90;;;;;;4994903;28;20211;-83
2021/08/05 11:18:10;;;;;;;3.38;2.40;;;26.50;99.90;;;;;;4995288;28;20648;-84
2021/08/05 11:20:38;;;;;;;3.42;2.67;;;25.90;99.90;;;;;;5012552;28;20776;-81
2021/08/05 11:23:05;;;;;;;3.92;2.75;;;26.20;99.90;;;;;;4994681;28;20169;-83
2021/08/05 11:25:52;;;;;;;4.35;2.67;;;26.30;99.90;;;;;;5012109;28;20603;-84
2021/08/05 11:28:23;;;;;;;3.20;2.88;;;26.10;99.90;;;;;;5011936;28;20169;-83
2021/08/05 11:30:55;;;;;;;4.93;2.78;;;26.20;99.90;;;;;;5012808;28;20226;-83
2021/08/05 11:33:42;;;;;;;3.15;2.88;;;26.50;99.90;;;;;;5013581;28;20187;-89
2021/08/05 11:36:18;;;;;;;2.90;2.70;;;26.40;99.90;;;;;;4997482;28;20212;-91
2021/08/05 11:39:03;;;;;;;5.03;2.90;;;26.10;99.90;;;;;;4997884;28;20180;-89
2021/08/05 11:41:55;;;;;;;3.75;2.55;;;26.10;99.90;;;;;;4997071;28;20183;-90
2021/08/05 11:44:35;;;;;;;3.58;2.28;;;26.00;99.90;;;;;;4996680;28;20164;-93
2021/08/05 11:47:25;;;;;;;2.53;2.33;;;26.10;99.90;;;;;;4996688;28;20195;-90
2021/08/05 11:49:59;;;;;;;5.97;2.83;;;26.10;99.90;;;;;;4997033;28;20164;-89
2021/08/05 11:52:45;;;;;;;3.67;2.15;;;26.50;99.90;;;;;;4996708;28;20545;-91
2021/08/05 11:55:28;;;;;;;4.00;2.72;;;26.50;99.90;;;;;;4995694;28;20281;-92
2021/08/05 11:58:03;;;;;;;10.02;3.15;;;26.40;99.90;;;;;;4996823;28;20165;-91
2021/08/05 12:00:35;;;;;;;4.47;3.08;;;26.50;99.90;;;;;;4997231;28;20261;-90
2021/08/05 12:03:09;;;;;;;3.55;3.25;;;26.70;99.90;;;;;;4997105;28;20251;-91
2021/08/05 12:05:45;;;;;;;6.32;4.90;;;27.00;99.90;;;;;;4997579;28;20586;-92
2021/08/05 12:08:12;;;;;;;4.00;2.97;;;27.00;99.90;;;;;;4996329;28;20168;-89
2021/08/05 12:10:42;;;;;;;3.00;2.70;;;27.00;99.90;;;;;;4996322;28;20187;-88
2021/08/05 12:13:15;;;;;;;3.55;3.05;;;27.00;99.90;;;;;;4996441;28;20176;-88
2021/08/05 12:15:46;;;;;;;4.45;2.53;;;27.10;99.90;;;;;;4996293;28;20235;-89
2021/08/05 12:18:15;;;;;;;3.13;2.67;;;27.20;99.90;;;;;;4996420;28;20164;-89
2021/08/05 12:20:46;;;;;;;4.35;2.88;;;27.00;99.90;;;;;;4999467;28;20554;-89
2021/08/05 12:23:41;;;;;;;8.70;3.33;;;27.00;99.90;;;;;;4999255;28;20168;-89
2021/08/05 12:26:21;;;;;;;4.43;2.58;;;26.90;99.90;;;;;;4999460;28;20232;-89
2021/08/05 12:28:47;;;;;;;6.70;3.00;;;27.10;99.90;;;;;;4999844;28;20644;-91
2021/08/05 12:31:17;;;;;;;5.93;2.83;;;27.30;99.90;;;;;;5000403;28;20202;-88
2021/08/05 12:33:44;;;;;;;11.23;2.70;;;27.20;99.90;;;;;;4999955;28;20510;-88
2021/08/05 12:36:17;;;;;;;6.75;2.70;;;26.80;99.90;;;;;;4999894;28;20207;-89
2021/08/05 12:38:56;;;;;;;2.40;2.20;;;26.60;99.90;;;;;;4999888;28;20168;-88
2021/08/05 12:41:30;;;;;;;6.55;2.90;;;26.00;99.90;;;;;;5000388;28;20903;-90